Terminal Aerodrome Forecast
Issued by NWS Wakefield, VA

Home | Current Version | Previous Version | Text Only | Print | Product List | Glossary On
Versions: 1 2 3 4 5 6 7 8 9 10 11 12 13 14 15 16 17 18 19 20 21 22 23 24 25 26
614
FTUS41 KAKQ 191131
TAFSBY
TAF
KSBY 191131Z 1912/2012 36012G18KT P6SM VCSH BKN015 BKN025
      TEMPO 1912/1916 -RA
     FM191600 36016G25KT P6SM VCSH OVC020
     FM192200 34012G18KT P6SM OVC030
     FM200200 33008KT P6SM BKN040=

USA.gov is the U.S. government's official web portal to all federal, state and local government web resources and services.